MSC Kalina — 3ETW2 — position and weather

sailwx.info

Track history (hours):
 
Tides and Currents Weather Stations Pressure Air Temp Water Temp Dewpoint Dewpoint Depression Visibility Wind Speed Wind Dir Waves Ship Positions

MSC Kalina

Last reported at 2018-Jun-24 03:28 UTC. Time now 2018-Jun-24 03:42 UTC.
Position N 49°53' W 003°06'.

Length 366 m; draft 13.4 m.

Type: Ship (hazmat cat A). MMSI: 351361000.

Date/timePositionNaut miles runAvg speedWind from/ knotsBaromVisibWave heightAir tempDewpointWater temp
2018-Jun-24 03:28N 49°53' W 003°06'817.0
2018-Jun-24 03:00N 49°57' W 002°55'817.1
2018-Jun-24 02:30N 50°00' W 002°43'917.4
2018-Jun-24 02:00N 50°03' W 002°30'1017.9
2018-Jun-24 01:25N 50°06' W 002°14'918.6
2018-Jun-24 00:55N 50°08' W 002°00'819.2
2018-Jun-24 00:30N 50°10' W 001°48'1019.6
2018-Jun-24 00:00N 50°13' W 001°33'1019.9
2018-Jun-23 23:30N 50°15' W 001°18'1120.3
2018-Jun-23 22:58N 50°18' W 001°02'920.2
2018-Jun-23 22:30N 50°21' W 000°48'1019.8
2018-Jun-23 22:00N 50°23' W 000°33'1019.1
2018-Jun-23 21:31N 50°26' W 000°19'918.4
2018-Jun-23 21:01N 50°29' W 000°05'918.1
2018-Jun-23 20:31N 50°31' E 000°09'917.8
2018-Jun-23 20:00N 50°34' E 000°23'917.4
2018-Jun-23 19:30N 50°36' E 000°36'917.1
2018-Jun-23 19:00N 50°40' E 000°47'917.1
2018-Jun-23 18:30N 50°45' E 000°58'917.7
2018-Jun-23 18:00N 50°51' E 001°10'918.3
2018-Jun-23 17:30N 50°57' E 001°20'1019.9
2018-Jun-23 17:00N 51°04' E 001°31'1020.5
2018-Jun-23 16:30N 51°11' E 001°43'1020.2
2018-Jun-23 16:00N 51°19' E 001°52'816.7
2018-Jun-23 15:30N 51°26' E 002°02'917.6
2018-Jun-23 15:01N 51°21' E 002°13'918.2
2018-Jun-23 14:30N 51°22' E 002°28'816.7
2018-Jun-23 14:00N 51°23' E 002°41'5 9.3
2018-Jun-23 13:30N 51°25' E 002°48'815.1
2018-Jun-23 13:00N 51°25' E 003°00'714.2
2018-Jun-23 12:30N 51°22' E 003°11'1 2.8
2018-Jun-23 11:59N 51°21' E 003°11'0 0.0
2018-Jun-23 11:29N 51°21' E 003°11'0 0.0
2018-Jun-23 10:56N 51°21' E 003°11'0 0.0
2018-Jun-23 10:29N 51°21' E 003°11'0 0.0
2018-Jun-23 09:56N 51°21' E 003°11'0 0.0
2018-Jun-23 09:29N 51°21' E 003°11'0 0.0
2018-Jun-23 08:59N 51°21' E 003°11'0 0.0
2018-Jun-23 08:29N 51°21' E 003°11'0 0.0
2018-Jun-23 07:59N 51°21' E 003°11'0 0.0
2018-Jun-23 07:29N 51°21' E 003°11'0 0.0
2018-Jun-23 06:59N 51°21' E 003°11'0 0.0
2018-Jun-23 06:23N 51°21' E 003°11'0 0.0
2018-Jun-23 05:59N 51°21' E 003°11'0 0.0
2018-Jun-23 05:29N 51°21' E 003°11'0 0.0
2018-Jun-23 04:59N 51°21' E 003°11'0 0.0
2018-Jun-23 04:29N 51°21' E 003°11'0 0.0
2018-Jun-23 03:58N 51°21' E 003°11'0 0.0
2018-Jun-23 03:28N 51°21' E 003°11'0 0.0
2018-Jun-23 02:58N 51°21' E 003°11'0 0.0
2018-Jun-23 02:25N 51°21' E 003°11'0 0.0
2018-Jun-23 01:58N 51°21' E 003°11'0 0.0
2018-Jun-23 01:28N 51°21' E 003°11'0 0.0
2018-Jun-23 00:52N 51°21' E 003°11'0 0.0
2018-Jun-23 00:28N 51°21' E 003°11'0 0.0
2018-Jun-22 23:58N 51°21' E 003°11'0 0.0
2018-Jun-22 23:28N 51°21' E 003°11'0 0.0
2018-Jun-22 22:58N 51°21' E 003°11'0 0.0
2018-Jun-22 22:28N 51°21' E 003°11'0 0.0
2018-Jun-22 21:58N 51°21' E 003°11'0 0.0
2018-Jun-22 21:28N 51°21' E 003°11'0 0.0
2018-Jun-22 20:58N 51°21' E 003°11'0 0.0
2018-Jun-22 20:19N 51°21' E 003°11'0 0.0
2018-Jun-22 19:55N 51°21' E 003°11'0 0.0
2018-Jun-22 19:16N 51°21' E 003°11'0 0.0
2018-Jun-22 18:58N 51°21' E 003°11'0 0.3
2018-Jun-22 18:30N 51°21' E 003°11'1 1.0
2018-Jun-22 18:00N 51°21' E 003°12'3 5.4
2018-Jun-22 17:31N 51°23' E 003°09'510.3
2018-Jun-22 17:00N 51°25' E 003°01'713.4
2018-Jun-22 16:30N 51°25' E 002°50'610.7
2018-Jun-22 15:58N 51°23' E 002°42'510.5
2018-Jun-22 15:30N 51°22' E 002°34'714.4
2018-Jun-22 15:00N 51°21' E 002°23'714.3
2018-Jun-22 14:30N 51°17' E 002°13'714.4
2018-Jun-22 14:00N 51°13' E 002°03'714.5
2018-Jun-22 13:30N 51°10' E 001°53'714.6
2018-Jun-22 13:00N 51°06' E 001°43'714.3
2018-Jun-22 12:30N 51°01' E 001°36'714.9
2018-Jun-22 12:00N 50°55' E 001°29'815.3
2018-Jun-22 11:30N 50°47' E 001°25'815.3
2018-Jun-22 11:01N 50°41' E 001°19'815.7
2018-Jun-22 10:30N 50°36' E 001°10'815.9
2018-Jun-22 10:00N 50°31' E 000°60'815.7
2018-Jun-22 09:30N 50°28' E 000°48'816.2
2018-Jun-22 09:01N 50°25' E 000°36'816.2
2018-Jun-22 08:30N 50°23' E 000°24'816.1
2018-Jun-22 08:00N 50°20' E 000°12'816.2
2018-Jun-22 07:31N 50°18' E 000°00'816.4
2018-Jun-22 07:00N 50°12' W 000°09'816.9
2018-Jun-22 06:30N 50°05' W 000°16'917.3
2018-Jun-22 06:01N 49°56' W 000°19'917.6
2018-Jun-22 05:31N 49°48' W 000°22'815.1
2018-Jun-22 05:01N 49°40' W 000°20'816.5
2018-Jun-22 04:30N 49°35' W 000°10'714.1
2018-Jun-22 04:00N 49°31' W 000°02'612.3
2018-Jun-22 03:30N 49°28' E 000°07'1 2.3
2018-Jun-22 03:00N 49°28' E 000°08'0 0.0
2018-Jun-22 02:30N 49°28' E 000°08'0 0.0
2018-Jun-22 02:00N 49°28' E 000°08'0 0.0
2018-Jun-22 01:30N 49°28' E 000°08'0 0.0
2018-Jun-22 01:00N 49°28' E 000°08'0 0.0
2018-Jun-22 00:30N 49°28' E 000°08'0 0.0
2018-Jun-22 00:00N 49°28' E 000°08'0 0.0
2018-Jun-21 23:30N 49°28' E 000°08'0 0.0
2018-Jun-21 23:00N 49°28' E 000°08'0 0.0
2018-Jun-21 22:30N 49°28' E 000°08'0 0.0
2018-Jun-21 22:00N 49°28' E 000°08'0 0.0
2018-Jun-21 21:30N 49°28' E 000°08'0 0.0
2018-Jun-21 21:00N 49°28' E 000°08'0 0.0
2018-Jun-21 20:30N 49°28' E 000°08'0 0.0
2018-Jun-21 20:00N 49°28' E 000°08'0 0.0
2018-Jun-21 19:30N 49°28' E 000°08'0 0.0
2018-Jun-21 19:00N 49°28' E 000°08'0 0.0
2018-Jun-21 18:30N 49°28' E 000°08'0 0.0
2018-Jun-21 18:00N 49°28' E 000°08'0 0.0
2018-Jun-21 17:30N 49°28' E 000°08'0 0.0
2018-Jun-21 17:00N 49°28' E 000°08'0 0.0
2018-Jun-21 16:30N 49°28' E 000°08'0 0.0
2018-Jun-21 16:00N 49°28' E 000°08'0 0.0
2018-Jun-21 15:30N 49°28' E 000°08'0 0.0
2018-Jun-21 15:00N 49°28' E 000°08'0 0.0
2018-Jun-21 14:30N 49°28' E 000°08'0 0.0
2018-Jun-21 14:00N 49°28' E 000°08'0 0.0
2018-Jun-21 13:30N 49°28' E 000°08'0 0.0
2018-Jun-21 13:00N 49°28' E 000°08'0 0.0
2018-Jun-21 12:30N 49°28' E 000°08'0 0.0
2018-Jun-21 12:00N 49°28' E 000°08'0 0.0
2018-Jun-21 11:30N 49°28' E 000°08'0 0.0
2018-Jun-21 11:00N 49°28' E 000°08'0 0.0
2018-Jun-21 10:30N 49°28' E 000°08'0 0.0
2018-Jun-21 10:00N 49°28' E 000°08'0 0.0
2018-Jun-21 09:30N 49°28' E 000°08'0 0.0
2018-Jun-21 09:00N 49°28' E 000°08'0 0.0
2018-Jun-21 08:30N 49°28' E 000°08'0 0.0
2018-Jun-21 08:00N 49°28' E 000°08'0 0.0
2018-Jun-21 07:30N 49°28' E 000°08'0 0.0
2018-Jun-21 07:00N 49°28' E 000°08'0 0.0
2018-Jun-21 06:30N 49°28' E 000°08'0 0.0
2018-Jun-21 06:00N 49°28' E 000°08'0 0.0
2018-Jun-21 05:30N 49°28' E 000°08'0 0.0
2018-Jun-21 05:00N 49°28' E 000°08'0 0.0
2018-Jun-21 04:30N 49°28' E 000°08'0 0.0
2018-Jun-21 04:00N 49°28' E 000°08'0 0.0
2018-Jun-21 03:30N 49°28' E 000°08'0 0.0
2018-Jun-21 03:00N 49°28' E 000°08'0 0.0
2018-Jun-21 02:30N 49°28' E 000°08'0 0.0
2018-Jun-21 02:00N 49°28' E 000°08'0 0.0
2018-Jun-21 01:30N 49°28' E 000°08'0 0.0
2018-Jun-21 01:00N 49°28' E 000°08'0 0.0
2018-Jun-21 00:30N 49°28' E 000°08'0 0.0
2018-Jun-21 00:00N 49°28' E 000°08'0 0.0
2018-Jun-20 23:30N 49°28' E 000°08'0 0.0
2018-Jun-20 23:00N 49°28' E 000°08'0 0.0
2018-Jun-20 22:30N 49°28' E 000°08'0 0.0
2018-Jun-20 22:00N 49°28' E 000°08'0 0.0
2018-Jun-20 21:30N 49°28' E 000°08'0 0.0
2018-Jun-20 21:00N 49°28' E 000°08'0 0.0
2018-Jun-20 20:30N 49°28' E 000°08'0 0.0
2018-Jun-20 20:00N 49°28' E 000°08'0 0.0
2018-Jun-20 19:30N 49°28' E 000°08'0 0.0
2018-Jun-20 19:00N 49°28' E 000°08'0 0.0
2018-Jun-20 18:30N 49°28' E 000°08'0 0.0
2018-Jun-20 17:57N 49°28' E 000°08'0 0.0
2018-Jun-20 17:30N 49°28' E 000°08'0 0.0
2018-Jun-20 17:00N 49°28' E 000°08'0 0.0
2018-Jun-20 16:27N 49°28' E 000°08'0 0.0
2018-Jun-20 16:00N 49°28' E 000°08'0 0.0
2018-Jun-20 15:30N 49°28' E 000°08'0 0.0
2018-Jun-20 15:00N 49°28' E 000°08'0 0.0
2018-Jun-20 14:30N 49°28' E 000°08'0 0.0
2018-Jun-20 14:00N 49°28' E 000°08'0 0.0
2018-Jun-20 13:30N 49°28' E 000°08'0 0.0
2018-Jun-20 13:00N 49°28' E 000°08'0 0.0
2018-Jun-20 12:30N 49°28' E 000°08'0 0.0
2018-Jun-20 12:00N 49°28' E 000°08'0 0.0
2018-Jun-20 11:30N 49°28' E 000°08'0 0.3
2018-Jun-20 11:00N 49°28' E 000°09'0 0.4
2018-Jun-20 10:30N 49°27' E 000°09'5 9.6
2018-Jun-20 10:01N 49°30' E 000°02'713.3
2018-Jun-20 09:30N 49°32' W 000°08'511.1
2018-Jun-20 09:00N 49°33' W 000°16'815.9
2018-Jun-20 08:30N 49°38' W 000°26'1019.5
2018-Jun-20 08:00N 49°48' W 000°23'1020.6
2018-Jun-20 07:30N 49°57' W 000°18'1020.6
2018-Jun-20 07:00N 50°07' W 000°12'1020.4
2018-Jun-20 06:30N 50°17' W 000°08'1019.6
2018-Jun-20 06:00N 50°26' W 000°03'1020.2
2018-Jun-20 05:30N 50°30' E 000°12'1020.0
2018-Jun-20 05:00N 50°33' E 000°27'919.3
2018-Jun-20 04:30N 50°37' E 000°41'918.9
2018-Jun-20 04:00N 50°42' E 000°53'918.3
2018-Jun-20 03:30N 50°47' E 001°05'918.2
2018-Jun-20 03:00N 50°53' E 001°16'918.4
2018-Jun-20 02:30N 51°00' E 001°25'1019.5
2018-Jun-20 02:00N 51°07' E 001°36'1020.1
2018-Jun-20 01:30N 51°15' E 001°46'1020.7
2018-Jun-20 01:00N 51°25' E 001°52'918.9
2018-Jun-20 00:30N 51°34' E 001°48'1019.9
2018-Jun-20 00:00N 51°44' E 001°44'816.8
2018-Jun-19 23:31N 51°51' E 001°40'4 7.8
2018-Jun-19 23:00N 51°52' E 001°34'510.0
2018-Jun-19 22:30N 51°56' E 001°29'612.1
2018-Jun-19 22:00N 51°55' E 001°20'3 5.4
2018-Jun-19 21:30N 51°58' E 001°17'0 0.1
2018-Jun-19 21:00N 51°58' E 001°17'0 0.0
2018-Jun-19 20:30N 51°58' E 001°17'0 0.0
2018-Jun-19 20:00N 51°58' E 001°17'0 0.0
2018-Jun-19 19:30N 51°58' E 001°17'0 0.0
2018-Jun-19 19:00N 51°58' E 001°17'0 0.0
2018-Jun-19 18:30N 51°58' E 001°17'0 0.0
2018-Jun-19 18:00N 51°58' E 001°17'0 0.0
2018-Jun-19 17:30N 51°58' E 001°17'0 0.0
2018-Jun-19 17:00N 51°58' E 001°17'0 0.0
2018-Jun-19 16:30N 51°58' E 001°17'0 0.0
2018-Jun-19 16:00N 51°58' E 001°17'0 0.0
2018-Jun-19 15:30N 51°58' E 001°17'0 0.0
2018-Jun-19 15:00N 51°58' E 001°17'0 0.0
2018-Jun-19 14:30N 51°58' E 001°17'0 0.0
2018-Jun-19 14:00N 51°58' E 001°17'0 0.0
2018-Jun-19 13:30N 51°58' E 001°17'0 0.0
2018-Jun-19 13:00N 51°58' E 001°17'0 0.0
2018-Jun-19 12:30N 51°58' E 001°17'0 0.0
2018-Jun-19 12:00N 51°58' E 001°17'0 0.0
2018-Jun-19 11:30N 51°58' E 001°17'0 0.0
2018-Jun-19 11:00N 51°58' E 001°17'0 0.0
2018-Jun-19 10:30N 51°58' E 001°17'0 0.0
2018-Jun-19 10:00N 51°58' E 001°17'0 0.0
2018-Jun-19 09:30N 51°58' E 001°17'0 0.0
2018-Jun-19 09:00N 51°58' E 001°17'0 0.0
2018-Jun-19 08:30N 51°58' E 001°17'0 0.0
2018-Jun-19 08:00N 51°58' E 001°17'0 0.0
2018-Jun-19 07:30N 51°58' E 001°17'0 0.0
2018-Jun-19 07:00N 51°58' E 001°17'0 0.0
2018-Jun-19 06:30N 51°58' E 001°17'0 0.0
2018-Jun-19 06:00N 51°58' E 001°17'0 0.0
2018-Jun-19 05:30N 51°58' E 001°17'0 0.0
2018-Jun-19 05:00N 51°58' E 001°17'0 0.0
2018-Jun-19 04:30N 51°58' E 001°17'0 0.0
2018-Jun-19 04:00N 51°58' E 001°17'0 0.0
2018-Jun-19 03:30N 51°58' E 001°17'0 0.0
2018-Jun-19 03:00N 51°58' E 001°17'0 0.0
2018-Jun-19 02:30N 51°58' E 001°17'0 0.0
2018-Jun-19 02:00N 51°58' E 001°17'0 0.0
2018-Jun-19 01:30N 51°58' E 001°17'0 0.0
2018-Jun-19 01:00N 51°58' E 001°17'0 0.0
2018-Jun-19 00:30N 51°58' E 001°17'0 0.0
2018-Jun-19 00:00N 51°58' E 001°17'0 0.0
2018-Jun-18 23:30N 51°58' E 001°17'0 0.0
2018-Jun-18 23:00N 51°58' E 001°17'0 0.0
2018-Jun-18 22:30N 51°58' E 001°17'0 0.0
2018-Jun-18 22:00N 51°58' E 001°17'0 0.0
2018-Jun-18 21:30N 51°58' E 001°17'0 0.0
2018-Jun-18 21:00N 51°58' E 001°17'0 0.0
2018-Jun-18 20:30N 51°58' E 001°17'0 0.0
2018-Jun-18 20:00N 51°58' E 001°17'0 0.0
2018-Jun-18 19:30N 51°58' E 001°17'0 0.0
2018-Jun-18 19:00N 51°58' E 001°17'0 0.0
2018-Jun-18 18:30N 51°58' E 001°17'0 0.0
2018-Jun-18 18:00N 51°58' E 001°17'0 0.0
2018-Jun-18 17:30N 51°58' E 001°17'0 0.0
2018-Jun-18 17:00N 51°58' E 001°17'0 0.0
2018-Jun-18 16:30N 51°58' E 001°17'0 0.0
2018-Jun-18 16:00N 51°58' E 001°17'0 0.0
2018-Jun-18 15:30N 51°58' E 001°17'0 0.0
2018-Jun-18 15:00N 51°58' E 001°17'0 0.0
2018-Jun-18 14:30N 51°58' E 001°17'0 0.0
2018-Jun-18 14:00N 51°58' E 001°17'0 0.0
2018-Jun-18 13:30N 51°58' E 001°17'0 0.0
2018-Jun-18 13:00N 51°58' E 001°17'0 0.0
2018-Jun-18 12:30N 51°58' E 001°17'0 0.0
2018-Jun-18 12:00N 51°58' E 001°17'0 0.0
2018-Jun-18 11:30N 51°58' E 001°17'0 0.0
2018-Jun-18 11:00N 51°58' E 001°17'0 0.0
2018-Jun-18 10:30N 51°58' E 001°17'0 0.0
2018-Jun-18 10:00N 51°58' E 001°17'0 0.0
2018-Jun-18 09:30N 51°58' E 001°17'0 0.0
2018-Jun-18 09:00N 51°58' E 001°17'0 0.0
2018-Jun-18 08:30N 51°58' E 001°17'0 0.0
2018-Jun-18 08:00N 51°58' E 001°17'0 0.0
2018-Jun-18 07:30N 51°58' E 001°17'0 0.0
2018-Jun-18 07:00N 51°58' E 001°17'0 0.0
2018-Jun-18 06:30N 51°58' E 001°17'0 0.0
2018-Jun-18 06:00N 51°58' E 001°17'0 0.0
2018-Jun-18 05:30N 51°58' E 001°17'0 0.0
2018-Jun-18 05:00N 51°58' E 001°17'0 0.0
2018-Jun-18 04:30N 51°58' E 001°17'0 0.0
2018-Jun-18 04:00N 51°58' E 001°17'0 0.0
2018-Jun-18 03:30N 51°58' E 001°17'0 0.0
2018-Jun-18 03:00N 51°58' E 001°17'0 0.0
2018-Jun-18 02:30N 51°58' E 001°17'0 0.0
2018-Jun-18 02:00N 51°58' E 001°17'0 0.0
2018-Jun-18 01:30N 51°58' E 001°17'0 0.0
2018-Jun-18 01:00N 51°58' E 001°17'0 0.0
2018-Jun-18 00:30N 51°58' E 001°17'0 0.0
2018-Jun-18 00:00N 51°58' E 001°17'0 0.0
2018-Jun-17 23:30N 51°58' E 001°17'0 0.0
2018-Jun-17 23:00N 51°58' E 001°17'0 0.0
2018-Jun-17 22:30N 51°58' E 001°17'0 0.0
2018-Jun-17 22:00N 51°58' E 001°17'0 0.0
2018-Jun-17 21:30N 51°58' E 001°17'0 0.0
2018-Jun-17 21:00N 51°58' E 001°17'0 0.0
2018-Jun-17 20:30N 51°58' E 001°17'0 0.0
2018-Jun-17 20:00N 51°58' E 001°17'0 0.0
2018-Jun-17 19:30N 51°58' E 001°17'0 0.0
2018-Jun-17 19:00N 51°58' E 001°17'0 0.0
2018-Jun-17 18:30N 51°58' E 001°17'0 0.0
2018-Jun-17 18:00N 51°58' E 001°17'0 0.0
2018-Jun-17 17:30N 51°58' E 001°17'0 0.0
2018-Jun-17 17:00N 51°58' E 001°17'0 0.0
2018-Jun-17 16:30N 51°58' E 001°17'0 0.0
2018-Jun-17 16:00N 51°58' E 001°17'0 0.0
2018-Jun-17 15:30N 51°58' E 001°17'0 0.0
2018-Jun-17 15:00N 51°58' E 001°17'0 0.0
2018-Jun-17 14:30N 51°58' E 001°17'0 0.0
2018-Jun-17 14:00N 51°58' E 001°17'0 0.0
2018-Jun-17 13:30N 51°58' E 001°17'0 0.0
2018-Jun-17 13:00N 51°58' E 001°17'0 0.0
2018-Jun-17 12:30N 51°58' E 001°17'0 0.0
2018-Jun-17 12:00N 51°58' E 001°17'0 0.0
2018-Jun-17 11:30N 51°58' E 001°17'0 0.0
2018-Jun-17 11:00N 51°58' E 001°17'0 0.0
2018-Jun-17 10:30N 51°58' E 001°17'0 0.0
2018-Jun-17 10:00N 51°58' E 001°17'0 0.0
2018-Jun-17 09:30N 51°58' E 001°17'0 0.0
2018-Jun-17 09:00N 51°58' E 001°17'0 0.0
2018-Jun-17 08:30N 51°58' E 001°17'0 0.0
2018-Jun-17 08:00N 51°58' E 001°17'0 0.0
2018-Jun-17 07:30N 51°58' E 001°17'0 0.0
2018-Jun-17 07:00N 51°58' E 001°17'0 0.0
2018-Jun-17 06:30N 51°58' E 001°17'0 0.0
2018-Jun-17 06:00N 51°58' E 001°17'0 0.0
2018-Jun-17 05:30N 51°58' E 001°17'0 0.0
2018-Jun-17 05:00N 51°58' E 001°17'0 0.0
2018-Jun-17 04:30N 51°58' E 001°17'0 0.0
2018-Jun-17 04:00N 51°58' E 001°17'0 0.0
2018-Jun-17 03:30N 51°58' E 001°17'0 0.0
2018-Jun-17 03:00N 51°58' E 001°17'0 0.0
2018-Jun-17 02:30N 51°58' E 001°17'0 0.0
2018-Jun-17 02:00N 51°58' E 001°17'0 0.0
2018-Jun-17 01:30N 51°58' E 001°17'0 0.0
2018-Jun-17 01:00N 51°58' E 001°17'0 0.0
2018-Jun-17 00:30N 51°58' E 001°17'0 0.0
2018-Jun-17 00:00N 51°58' E 001°17'0 0.0
2018-Jun-16 23:30N 51°58' E 001°17'0 0.0
2018-Jun-16 23:00N 51°58' E 001°17'0 0.0
2018-Jun-16 22:30N 51°58' E 001°17'0 0.0
2018-Jun-16 22:00N 51°58' E 001°17'0 0.0
2018-Jun-16 21:30N 51°58' E 001°17'0 0.0
2018-Jun-16 21:00N 51°58' E 001°17'0 0.0
2018-Jun-16 20:30N 51°58' E 001°17'0 0.0
2018-Jun-16 20:00N 51°58' E 001°17'0 0.0
2018-Jun-16 19:30N 51°58' E 001°17'0 0.0
2018-Jun-16 19:00N 51°58' E 001°17'0 0.0
2018-Jun-16 18:30N 51°58' E 001°17'0 0.0
2018-Jun-16 18:00N 51°58' E 001°17'0 0.0
2018-Jun-16 17:30N 51°58' E 001°17'0 0.0
2018-Jun-16 17:00N 51°58' E 001°17'0 0.0
2018-Jun-16 16:30N 51°58' E 001°17'0 0.0
2018-Jun-16 16:00N 51°58' E 001°17'0 0.0
2018-Jun-16 15:30N 51°58' E 001°17'0 0.0
2018-Jun-16 15:00N 51°58' E 001°17'0 0.0
2018-Jun-16 14:30N 51°58' E 001°17'0 0.0
2018-Jun-16 14:00N 51°58' E 001°17'0 0.0
2018-Jun-16 13:30N 51°58' E 001°17'0 0.0
2018-Jun-16 13:00N 51°58' E 001°17'0 0.0
2018-Jun-16 12:30N 51°58' E 001°17'0 0.0
2018-Jun-16 12:00N 51°58' E 001°17'0 0.0
2018-Jun-16 11:30N 51°58' E 001°17'0 0.0
2018-Jun-16 11:00N 51°58' E 001°17'0 0.0
2018-Jun-16 10:30N 51°58' E 001°17'0 0.0
2018-Jun-16 10:00N 51°58' E 001°17'0 0.0
2018-Jun-16 09:30N 51°58' E 001°17'0 0.0
2018-Jun-16 09:00N 51°58' E 001°17'0 0.0
2018-Jun-16 08:30N 51°58' E 001°17'0 0.0
2018-Jun-16 08:00N 51°58' E 001°17'0 0.0
2018-Jun-16 07:30N 51°58' E 001°17'0 0.0
2018-Jun-16 07:00N 51°58' E 001°17'0 0.0
2018-Jun-16 06:30N 51°58' E 001°17'0 0.7
2018-Jun-16 06:00N 51°58' E 001°18'1 1.7
2018-Jun-16 05:30N 51°57' E 001°19'2 4.8
2018-Jun-16 05:00N 51°56' E 001°22'713.4
2018-Jun-16 04:31N 51°56' E 001°33'611.2
2018-Jun-16 04:00N 51°52' E 001°38'3 5.7
2018-Jun-16 03:30N 51°52' E 001°43'2 4.2
2018-Jun-16 03:00N 51°54' E 001°44'1 2.9
2018-Jun-16 02:30N 51°55' E 001°45'2 4.4
2018-Jun-16 02:00N 51°57' E 001°47'2 4.4
2018-Jun-16 01:30N 51°56' E 001°49'3 7.0
2018-Jun-16 01:00N 51°52' E 001°49'3 6.7
2018-Jun-16 00:30N 51°49' E 001°49'3 6.5
2018-Jun-16 00:00N 51°46' E 001°49'3 5.8
2018-Jun-15 23:30N 51°43' E 001°50'3 5.1
2018-Jun-15 23:00N 51°40' E 001°50'2 4.6
2018-Jun-15 22:30N 51°38' E 001°50'3 5.2
2018-Jun-15 22:00N 51°36' E 001°51'3 5.3
2018-Jun-15 21:30N 51°33' E 001°53'3 5.6
2018-Jun-15 21:00N 51°31' E 001°55'510.1
2018-Jun-15 20:30N 51°27' E 002°00'3 6.6
2018-Jun-15 20:00N 51°24' E 002°04'510.2
2018-Jun-15 19:30N 51°22' E 002°11'510.6
2018-Jun-15 19:00N 51°20' E 002°19'611.7
2018-Jun-15 18:30N 51°22' E 002°28'611.4
2018-Jun-15 18:00N 51°23' E 002°37'5 9.8
2018-Jun-15 17:30N 51°22' E 002°45'714.8
2018-Jun-15 17:00N 51°23' E 002°56'815.7
2018-Jun-15 16:30N 51°24' E 003°09'816.6
2018-Jun-15 16:00N 51°25' E 003°22'815.3
2018-Jun-15 15:30N 51°26' E 003°34'5 9.6
2018-Jun-15 15:00N 51°25' E 003°42'612.9
2018-Jun-15 14:31N 51°21' E 003°49'612.0
2018-Jun-15 14:00N 51°24' E 003°57'3 6.1
2018-Jun-15 13:30N 51°24' E 004°02'510.2
2018-Jun-15 13:00N 51°23' E 004°10'5 9.3
2018-Jun-15 12:31N 51°21' E 004°16'3 5.8
2018-Jun-15 11:59N 51°18' E 004°16'0 0.1
2018-Jun-15 11:29N 51°18' E 004°16'0 0.0
2018-Jun-15 10:59N 51°18' E 004°16'0 0.0
2018-Jun-15 10:29N 51°18' E 004°16'0 0.0
2018-Jun-15 09:59N 51°18' E 004°16'0 0.0
2018-Jun-15 09:29N 51°18' E 004°16'0 0.0
2018-Jun-15 08:59N 51°18' E 004°16'0 0.0
2018-Jun-15 08:29N 51°18' E 004°16'0 0.0
2018-Jun-15 07:59N 51°18' E 004°16'0 0.0
2018-Jun-15 07:29N 51°18' E 004°16'0 0.0
2018-Jun-15 06:56N 51°18' E 004°16'0 0.0
2018-Jun-15 06:29N 51°18' E 004°16'0 0.0
2018-Jun-15 05:59N 51°18' E 004°16'0 0.0
2018-Jun-15 05:29N 51°18' E 004°16'0 0.0
2018-Jun-15 04:59N 51°18' E 004°16'0 0.0
2018-Jun-15 04:29N 51°18' E 004°16'0 0.0
2018-Jun-15 03:59N 51°18' E 004°16'0 0.0
2018-Jun-15 03:29N 51°18' E 004°16'0 0.0
2018-Jun-15 03:00N 51°18' E 004°16'0 0.0
2018-Jun-15 02:30N 51°18' E 004°16'0 0.0
2018-Jun-15 02:00N 51°18' E 004°16'0 0.0
2018-Jun-15 01:30N 51°18' E 004°16'0 0.0
2018-Jun-15 01:00N 51°18' E 004°16'0 0.0
2018-Jun-15 00:30N 51°18' E 004°16'0 0.0
2018-Jun-15 00:00N 51°18' E 004°16'0 0.0
2018-Jun-14 23:30N 51°18' E 004°15'0 0.0
2018-Jun-14 23:00N 51°18' E 004°16'0 0.0
2018-Jun-14 22:30N 51°18' E 004°16'0 0.0
2018-Jun-14 22:00N 51°18' E 004°16'0 0.0
2018-Jun-14 21:30N 51°18' E 004°16'0 0.0
2018-Jun-14 21:00N 51°18' E 004°16'0 0.0
2018-Jun-14 20:30N 51°18' E 004°16'0 0.0
2018-Jun-14 20:00N 51°18' E 004°16'0 0.0
2018-Jun-14 19:30N 51°18' E 004°16'0 0.0
2018-Jun-14 19:00N 51°18' E 004°16'0 0.0
2018-Jun-14 18:30N 51°18' E 004°16'0 0.0
2018-Jun-14 18:00N 51°18' E 004°16'0 0.0
2018-Jun-14 17:30N 51°18' E 004°16'0 0.0
2018-Jun-14 17:00N 51°18' E 004°16'0 0.0
2018-Jun-14 16:30N 51°18' E 004°16'0 0.0
2018-Jun-14 16:00N 51°18' E 004°16'0 0.0
2018-Jun-14 15:30N 51°18' E 004°16'0 0.0
2018-Jun-14 15:00N 51°18' E 004°16'0 0.0
2018-Jun-14 14:30N 51°18' E 004°16'1 1.6
2018-Jun-14 14:01N 51°18' E 004°16'2 3.9
2018-Jun-14 13:30N 51°20' E 004°16'1 2.1
2018-Jun-14 13:00N 51°21' E 004°16'0 0.2
2018-Jun-14 12:28N 51°21' E 004°15'0 0.0
2018-Jun-14 12:00N 51°21' E 004°15'0 0.0
2018-Jun-14 11:30N 51°21' E 004°15'0 0.0
2018-Jun-14 11:00N 51°21' E 004°15'0 0.0
2018-Jun-14 10:31N 51°21' E 004°15'0 0.0
2018-Jun-14 10:00N 51°21' E 004°15'0 0.0
2018-Jun-14 09:30N 51°21' E 004°15'0 0.0
2018-Jun-14 08:59N 51°21' E 004°15'0 0.0
2018-Jun-14 08:29N 51°21' E 004°15'0 0.0
2018-Jun-14 08:01N 51°21' E 004°15'0 0.0
2018-Jun-14 07:31N 51°21' E 004°15'0 0.0
2018-Jun-14 07:00N 51°21' E 004°15'0 0.0
2018-Jun-14 06:30N 51°21' E 004°15'0 0.0
2018-Jun-14 06:00N 51°21' E 004°15'0 0.0
2018-Jun-14 05:30N 51°21' E 004°15'0 0.0
2018-Jun-14 05:00N 51°21' E 004°15'0 0.0
2018-Jun-14 04:31N 51°21' E 004°15'0 0.0
2018-Jun-14 04:00N 51°21' E 004°15'0 0.0
2018-Jun-14 03:31N 51°21' E 004°15'  
Track history (hours):
 
Tides and Currents Weather Stations Pressure Air Temp Water Temp Dewpoint Dewpoint Depression Visibility Wind Speed Wind Dir Waves Ship Positions

MSC Kalina

Last reported at 2018-Jun-24 03:28 UTC. Time now 2018-Jun-24 03:42 UTC.
Position N 49°53' W 003°06'.

Length 366 m; draft 13.4 m.

Type: Ship (hazmat cat A). MMSI: 351361000.

Date/timePositionNaut miles runAvg speedWind from/ knotsBaromVisibWave heightAir tempDewpointWater temp
2018-Jun-24 03:28N 49°53' W 003°06'817.0
2018-Jun-24 03:00N 49°57' W 002°55'817.1
2018-Jun-24 02:30N 50°00' W 002°43'917.4
2018-Jun-24 02:00N 50°03' W 002°30'1017.9
2018-Jun-24 01:25N 50°06' W 002°14'918.6
2018-Jun-24 00:55N 50°08' W 002°00'819.2
2018-Jun-24 00:30N 50°10' W 001°48'1019.6
2018-Jun-24 00:00N 50°13' W 001°33'1019.9
2018-Jun-23 23:30N 50°15' W 001°18'1120.3
2018-Jun-23 22:58N 50°18' W 001°02'920.2
2018-Jun-23 22:30N 50°21' W 000°48'1019.8
2018-Jun-23 22:00N 50°23' W 000°33'1019.1
2018-Jun-23 21:31N 50°26' W 000°19'918.4
2018-Jun-23 21:01N 50°29' W 000°05'918.1
2018-Jun-23 20:31N 50°31' E 000°09'917.8
2018-Jun-23 20:00N 50°34' E 000°23'917.4
2018-Jun-23 19:30N 50°36' E 000°36'917.1
2018-Jun-23 19:00N 50°40' E 000°47'917.1
2018-Jun-23 18:30N 50°45' E 000°58'917.7
2018-Jun-23 18:00N 50°51' E 001°10'918.3
2018-Jun-23 17:30N 50°57' E 001°20'1019.9
2018-Jun-23 17:00N 51°04' E 001°31'1020.5
2018-Jun-23 16:30N 51°11' E 001°43'1020.2
2018-Jun-23 16:00N 51°19' E 001°52'816.7
2018-Jun-23 15:30N 51°26' E 002°02'917.6
2018-Jun-23 15:01N 51°21' E 002°13'918.2
2018-Jun-23 14:30N 51°22' E 002°28'816.7
2018-Jun-23 14:00N 51°23' E 002°41'5 9.3
2018-Jun-23 13:30N 51°25' E 002°48'815.1
2018-Jun-23 13:00N 51°25' E 003°00'714.2
2018-Jun-23 12:30N 51°22' E 003°11'1 2.8
2018-Jun-23 11:59N 51°21' E 003°11'0 0.0
2018-Jun-23 11:29N 51°21' E 003°11'0 0.0
2018-Jun-23 10:56N 51°21' E 003°11'0 0.0
2018-Jun-23 10:29N 51°21' E 003°11'0 0.0
2018-Jun-23 09:56N 51°21' E 003°11'0 0.0
2018-Jun-23 09:29N 51°21' E 003°11'0 0.0
2018-Jun-23 08:59N 51°21' E 003°11'0 0.0
2018-Jun-23 08:29N 51°21' E 003°11'0 0.0
2018-Jun-23 07:59N 51°21' E 003°11'0 0.0
2018-Jun-23 07:29N 51°21' E 003°11'0 0.0
2018-Jun-23 06:59N 51°21' E 003°11'0 0.0
2018-Jun-23 06:23N 51°21' E 003°11'0 0.0
2018-Jun-23 05:59N 51°21' E 003°11'0 0.0
2018-Jun-23 05:29N 51°21' E 003°11'0 0.0
2018-Jun-23 04:59N 51°21' E 003°11'0 0.0
2018-Jun-23 04:29N 51°21' E 003°11'0 0.0
2018-Jun-23 03:58N 51°21' E 003°11'0 0.0
2018-Jun-23 03:28N 51°21' E 003°11'0 0.0
2018-Jun-23 02:58N 51°21' E 003°11'0 0.0
2018-Jun-23 02:25N 51°21' E 003°11'0 0.0
2018-Jun-23 01:58N 51°21' E 003°11'0 0.0
2018-Jun-23 01:28N 51°21' E 003°11'0 0.0
2018-Jun-23 00:52N 51°21' E 003°11'0 0.0
2018-Jun-23 00:28N 51°21' E 003°11'0 0.0
2018-Jun-22 23:58N 51°21' E 003°11'0 0.0
2018-Jun-22 23:28N 51°21' E 003°11'0 0.0
2018-Jun-22 22:58N 51°21' E 003°11'0 0.0
2018-Jun-22 22:28N 51°21' E 003°11'0 0.0
2018-Jun-22 21:58N 51°21' E 003°11'0 0.0
2018-Jun-22 21:28N 51°21' E 003°11'0 0.0
2018-Jun-22 20:58N 51°21' E 003°11'0 0.0
2018-Jun-22 20:19N 51°21' E 003°11'0 0.0
2018-Jun-22 19:55N 51°21' E 003°11'0 0.0
2018-Jun-22 19:16N 51°21' E 003°11'0 0.0
2018-Jun-22 18:58N 51°21' E 003°11'0 0.3
2018-Jun-22 18:30N 51°21' E 003°11'1 1.0
2018-Jun-22 18:00N 51°21' E 003°12'3 5.4
2018-Jun-22 17:31N 51°23' E 003°09'510.3
2018-Jun-22 17:00N 51°25' E 003°01'713.4
2018-Jun-22 16:30N 51°25' E 002°50'610.7
2018-Jun-22 15:58N 51°23' E 002°42'510.5
2018-Jun-22 15:30N 51°22' E 002°34'714.4
2018-Jun-22 15:00N 51°21' E 002°23'714.3
2018-Jun-22 14:30N 51°17' E 002°13'714.4
2018-Jun-22 14:00N 51°13' E 002°03'714.5
2018-Jun-22 13:30N 51°10' E 001°53'714.6
2018-Jun-22 13:00N 51°06' E 001°43'714.3
2018-Jun-22 12:30N 51°01' E 001°36'714.9
2018-Jun-22 12:00N 50°55' E 001°29'815.3
2018-Jun-22 11:30N 50°47' E 001°25'815.3
2018-Jun-22 11:01N 50°41' E 001°19'815.7
2018-Jun-22 10:30N 50°36' E 001°10'815.9
2018-Jun-22 10:00N 50°31' E 000°60'815.7
2018-Jun-22 09:30N 50°28' E 000°48'816.2
2018-Jun-22 09:01N 50°25' E 000°36'816.2
2018-Jun-22 08:30N 50°23' E 000°24'816.1
2018-Jun-22 08:00N 50°20' E 000°12'816.2
2018-Jun-22 07:31N 50°18' E 000°00'816.4
2018-Jun-22 07:00N 50°12' W 000°09'816.9
2018-Jun-22 06:30N 50°05' W 000°16'917.3
2018-Jun-22 06:01N 49°56' W 000°19'917.6
2018-Jun-22 05:31N 49°48' W 000°22'815.1
2018-Jun-22 05:01N 49°40' W 000°20'816.5
2018-Jun-22 04:30N 49°35' W 000°10'714.1
2018-Jun-22 04:00N 49°31' W 000°02'612.3
2018-Jun-22 03:30N 49°28' E 000°07'1 2.3
2018-Jun-22 03:00N 49°28' E 000°08'0 0.0
2018-Jun-22 02:30N 49°28' E 000°08'0 0.0
2018-Jun-22 02:00N 49°28' E 000°08'0 0.0
2018-Jun-22 01:30N 49°28' E 000°08'0 0.0
2018-Jun-22 01:00N 49°28' E 000°08'0 0.0
2018-Jun-22 00:30N 49°28' E 000°08'0 0.0
2018-Jun-22 00:00N 49°28' E 000°08'0 0.0
2018-Jun-21 23:30N 49°28' E 000°08'0 0.0
2018-Jun-21 23:00N 49°28' E 000°08'0 0.0
2018-Jun-21 22:30N 49°28' E 000°08'0 0.0
2018-Jun-21 22:00N 49°28' E 000°08'0 0.0
2018-Jun-21 21:30N 49°28' E 000°08'0 0.0
2018-Jun-21 21:00N 49°28' E 000°08'0 0.0
2018-Jun-21 20:30N 49°28' E 000°08'0 0.0
2018-Jun-21 20:00N 49°28' E 000°08'0 0.0
2018-Jun-21 19:30N 49°28' E 000°08'0 0.0
2018-Jun-21 19:00N 49°28' E 000°08'0 0.0
2018-Jun-21 18:30N 49°28' E 000°08'0 0.0
2018-Jun-21 18:00N 49°28' E 000°08'0 0.0
2018-Jun-21 17:30N 49°28' E 000°08'0 0.0
2018-Jun-21 17:00N 49°28' E 000°08'0 0.0
2018-Jun-21 16:30N 49°28' E 000°08'0 0.0
2018-Jun-21 16:00N 49°28' E 000°08'0 0.0
2018-Jun-21 15:30N 49°28' E 000°08'0 0.0
2018-Jun-21 15:00N 49°28' E 000°08'0 0.0
2018-Jun-21 14:30N 49°28' E 000°08'0 0.0
2018-Jun-21 14:00N 49°28' E 000°08'0 0.0
2018-Jun-21 13:30N 49°28' E 000°08'0 0.0
2018-Jun-21 13:00N 49°28' E 000°08'0 0.0
2018-Jun-21 12:30N 49°28' E 000°08'0 0.0
2018-Jun-21 12:00N 49°28' E 000°08'0 0.0
2018-Jun-21 11:30N 49°28' E 000°08'0 0.0
2018-Jun-21 11:00N 49°28' E 000°08'0 0.0
2018-Jun-21 10:30N 49°28' E 000°08'0 0.0
2018-Jun-21 10:00N 49°28' E 000°08'0 0.0
2018-Jun-21 09:30N 49°28' E 000°08'0 0.0
2018-Jun-21 09:00N 49°28' E 000°08'0 0.0
2018-Jun-21 08:30N 49°28' E 000°08'0 0.0
2018-Jun-21 08:00N 49°28' E 000°08'0 0.0
2018-Jun-21 07:30N 49°28' E 000°08'0 0.0
2018-Jun-21 07:00N 49°28' E 000°08'0 0.0
2018-Jun-21 06:30N 49°28' E 000°08'0 0.0
2018-Jun-21 06:00N 49°28' E 000°08'0 0.0
2018-Jun-21 05:30N 49°28' E 000°08'0 0.0
2018-Jun-21 05:00N 49°28' E 000°08'0 0.0
2018-Jun-21 04:30N 49°28' E 000°08'0 0.0
2018-Jun-21 04:00N 49°28' E 000°08'0 0.0
2018-Jun-21 03:30N 49°28' E 000°08'0 0.0
2018-Jun-21 03:00N 49°28' E 000°08'0 0.0
2018-Jun-21 02:30N 49°28' E 000°08'0 0.0
2018-Jun-21 02:00N 49°28' E 000°08'0 0.0
2018-Jun-21 01:30N 49°28' E 000°08'0 0.0
2018-Jun-21 01:00N 49°28' E 000°08'0 0.0
2018-Jun-21 00:30N 49°28' E 000°08'0 0.0
2018-Jun-21 00:00N 49°28' E 000°08'0 0.0
2018-Jun-20 23:30N 49°28' E 000°08'0 0.0
2018-Jun-20 23:00N 49°28' E 000°08'0 0.0
2018-Jun-20 22:30N 49°28' E 000°08'0 0.0
2018-Jun-20 22:00N 49°28' E 000°08'0 0.0
2018-Jun-20 21:30N 49°28' E 000°08'0 0.0
2018-Jun-20 21:00N 49°28' E 000°08'0 0.0
2018-Jun-20 20:30N 49°28' E 000°08'0 0.0
2018-Jun-20 20:00N 49°28' E 000°08'0 0.0
2018-Jun-20 19:30N 49°28' E 000°08'0 0.0
2018-Jun-20 19:00N 49°28' E 000°08'0 0.0
2018-Jun-20 18:30N 49°28' E 000°08'0 0.0
2018-Jun-20 17:57N 49°28' E 000°08'0 0.0
2018-Jun-20 17:30N 49°28' E 000°08'0 0.0
2018-Jun-20 17:00N 49°28' E 000°08'0 0.0
2018-Jun-20 16:27N 49°28' E 000°08'0 0.0
2018-Jun-20 16:00N 49°28' E 000°08'0 0.0
2018-Jun-20 15:30N 49°28' E 000°08'0 0.0
2018-Jun-20 15:00N 49°28' E 000°08'0 0.0
2018-Jun-20 14:30N 49°28' E 000°08'0 0.0
2018-Jun-20 14:00N 49°28' E 000°08'0 0.0
2018-Jun-20 13:30N 49°28' E 000°08'0 0.0
2018-Jun-20 13:00N 49°28' E 000°08'0 0.0
2018-Jun-20 12:30N 49°28' E 000°08'0 0.0
2018-Jun-20 12:00N 49°28' E 000°08'0 0.0
2018-Jun-20 11:30N 49°28' E 000°08'0 0.3
2018-Jun-20 11:00N 49°28' E 000°09'0 0.4
2018-Jun-20 10:30N 49°27' E 000°09'5 9.6
2018-Jun-20 10:01N 49°30' E 000°02'713.3
2018-Jun-20 09:30N 49°32' W 000°08'511.1
2018-Jun-20 09:00N 49°33' W 000°16'815.9
2018-Jun-20 08:30N 49°38' W 000°26'1019.5
2018-Jun-20 08:00N 49°48' W 000°23'1020.6
2018-Jun-20 07:30N 49°57' W 000°18'1020.6
2018-Jun-20 07:00N 50°07' W 000°12'1020.4
2018-Jun-20 06:30N 50°17' W 000°08'1019.6
2018-Jun-20 06:00N 50°26' W 000°03'1020.2
2018-Jun-20 05:30N 50°30' E 000°12'1020.0
2018-Jun-20 05:00N 50°33' E 000°27'919.3
2018-Jun-20 04:30N 50°37' E 000°41'918.9
2018-Jun-20 04:00N 50°42' E 000°53'918.3
2018-Jun-20 03:30N 50°47' E 001°05'918.2
2018-Jun-20 03:00N 50°53' E 001°16'918.4
2018-Jun-20 02:30N 51°00' E 001°25'1019.5
2018-Jun-20 02:00N 51°07' E 001°36'1020.1
2018-Jun-20 01:30N 51°15' E 001°46'1020.7
2018-Jun-20 01:00N 51°25' E 001°52'918.9
2018-Jun-20 00:30N 51°34' E 001°48'1019.9
2018-Jun-20 00:00N 51°44' E 001°44'816.8
2018-Jun-19 23:31N 51°51' E 001°40'4 7.8
2018-Jun-19 23:00N 51°52' E 001°34'510.0
2018-Jun-19 22:30N 51°56' E 001°29'612.1
2018-Jun-19 22:00N 51°55' E 001°20'3 5.4
2018-Jun-19 21:30N 51°58' E 001°17'0 0.1
2018-Jun-19 21:00N 51°58' E 001°17'0 0.0
2018-Jun-19 20:30N 51°58' E 001°17'0 0.0
2018-Jun-19 20:00N 51°58' E 001°17'0 0.0
2018-Jun-19 19:30N 51°58' E 001°17'0 0.0
2018-Jun-19 19:00N 51°58' E 001°17'0 0.0
2018-Jun-19 18:30N 51°58' E 001°17'0 0.0
2018-Jun-19 18:00N 51°58' E 001°17'0 0.0
2018-Jun-19 17:30N 51°58' E 001°17'0 0.0
2018-Jun-19 17:00N 51°58' E 001°17'0 0.0
2018-Jun-19 16:30N 51°58' E 001°17'0 0.0
2018-Jun-19 16:00N 51°58' E 001°17'0 0.0
2018-Jun-19 15:30N 51°58' E 001°17'0 0.0
2018-Jun-19 15:00N 51°58' E 001°17'0 0.0
2018-Jun-19 14:30N 51°58' E 001°17'0 0.0
2018-Jun-19 14:00N 51°58' E 001°17'0 0.0
2018-Jun-19 13:30N 51°58' E 001°17'0 0.0
2018-Jun-19 13:00N 51°58' E 001°17'0 0.0
2018-Jun-19 12:30N 51°58' E 001°17'0 0.0
2018-Jun-19 12:00N 51°58' E 001°17'0 0.0
2018-Jun-19 11:30N 51°58' E 001°17'0 0.0
2018-Jun-19 11:00N 51°58' E 001°17'0 0.0
2018-Jun-19 10:30N 51°58' E 001°17'0 0.0
2018-Jun-19 10:00N 51°58' E 001°17'0 0.0
2018-Jun-19 09:30N 51°58' E 001°17'0 0.0
2018-Jun-19 09:00N 51°58' E 001°17'0 0.0
2018-Jun-19 08:30N 51°58' E 001°17'0 0.0
2018-Jun-19 08:00N 51°58' E 001°17'0 0.0
2018-Jun-19 07:30N 51°58' E 001°17'0 0.0
2018-Jun-19 07:00N 51°58' E 001°17'0 0.0
2018-Jun-19 06:30N 51°58' E 001°17'0 0.0
2018-Jun-19 06:00N 51°58' E 001°17'0 0.0
2018-Jun-19 05:30N 51°58' E 001°17'0 0.0
2018-Jun-19 05:00N 51°58' E 001°17'0 0.0
2018-Jun-19 04:30N 51°58' E 001°17'0 0.0
2018-Jun-19 04:00N 51°58' E 001°17'0 0.0
2018-Jun-19 03:30N 51°58' E 001°17'0 0.0
2018-Jun-19 03:00N 51°58' E 001°17'0 0.0
2018-Jun-19 02:30N 51°58' E 001°17'0 0.0
2018-Jun-19 02:00N 51°58' E 001°17'0 0.0
2018-Jun-19 01:30N 51°58' E 001°17'0 0.0
2018-Jun-19 01:00N 51°58' E 001°17'0 0.0
2018-Jun-19 00:30N 51°58' E 001°17'0 0.0
2018-Jun-19 00:00N 51°58' E 001°17'0 0.0
2018-Jun-18 23:30N 51°58' E 001°17'0 0.0
2018-Jun-18 23:00N 51°58' E 001°17'0 0.0
2018-Jun-18 22:30N 51°58' E 001°17'0 0.0
2018-Jun-18 22:00N 51°58' E 001°17'0 0.0
2018-Jun-18 21:30N 51°58' E 001°17'0 0.0
2018-Jun-18 21:00N 51°58' E 001°17'0 0.0
2018-Jun-18 20:30N 51°58' E 001°17'0 0.0
2018-Jun-18 20:00N 51°58' E 001°17'0 0.0
2018-Jun-18 19:30N 51°58' E 001°17'0 0.0
2018-Jun-18 19:00N 51°58' E 001°17'0 0.0
2018-Jun-18 18:30N 51°58' E 001°17'0 0.0
2018-Jun-18 18:00N 51°58' E 001°17'0 0.0
2018-Jun-18 17:30N 51°58' E 001°17'0 0.0
2018-Jun-18 17:00N 51°58' E 001°17'0 0.0
2018-Jun-18 16:30N 51°58' E 001°17'0 0.0
2018-Jun-18 16:00N 51°58' E 001°17'0 0.0
2018-Jun-18 15:30N 51°58' E 001°17'0 0.0
2018-Jun-18 15:00N 51°58' E 001°17'0 0.0
2018-Jun-18 14:30N 51°58' E 001°17'0 0.0
2018-Jun-18 14:00N 51°58' E 001°17'0 0.0
2018-Jun-18 13:30N 51°58' E 001°17'0 0.0
2018-Jun-18 13:00N 51°58' E 001°17'0 0.0
2018-Jun-18 12:30N 51°58' E 001°17'0 0.0
2018-Jun-18 12:00N 51°58' E 001°17'0 0.0
2018-Jun-18 11:30N 51°58' E 001°17'0 0.0
2018-Jun-18 11:00N 51°58' E 001°17'0 0.0
2018-Jun-18 10:30N 51°58' E 001°17'0 0.0
2018-Jun-18 10:00N 51°58' E 001°17'0 0.0
2018-Jun-18 09:30N 51°58' E 001°17'0 0.0
2018-Jun-18 09:00N 51°58' E 001°17'0 0.0
2018-Jun-18 08:30N 51°58' E 001°17'0 0.0
2018-Jun-18 08:00N 51°58' E 001°17'0 0.0
2018-Jun-18 07:30N 51°58' E 001°17'0 0.0
2018-Jun-18 07:00N 51°58' E 001°17'0 0.0
2018-Jun-18 06:30N 51°58' E 001°17'0 0.0
2018-Jun-18 06:00N 51°58' E 001°17'0 0.0
2018-Jun-18 05:30N 51°58' E 001°17'0 0.0
2018-Jun-18 05:00N 51°58' E 001°17'0 0.0
2018-Jun-18 04:30N 51°58' E 001°17'0 0.0
2018-Jun-18 04:00N 51°58' E 001°17'0 0.0
2018-Jun-18 03:30N 51°58' E 001°17'0 0.0
2018-Jun-18 03:00N 51°58' E 001°17'0 0.0
2018-Jun-18 02:30N 51°58' E 001°17'0 0.0
2018-Jun-18 02:00N 51°58' E 001°17'0 0.0
2018-Jun-18 01:30N 51°58' E 001°17'0 0.0
2018-Jun-18 01:00N 51°58' E 001°17'0 0.0
2018-Jun-18 00:30N 51°58' E 001°17'0 0.0
2018-Jun-18 00:00N 51°58' E 001°17'0 0.0
2018-Jun-17 23:30N 51°58' E 001°17'0 0.0
2018-Jun-17 23:00N 51°58' E 001°17'0 0.0
2018-Jun-17 22:30N 51°58' E 001°17'0 0.0
2018-Jun-17 22:00N 51°58' E 001°17'0 0.0
2018-Jun-17 21:30N 51°58' E 001°17'0 0.0
2018-Jun-17 21:00N 51°58' E 001°17'0 0.0
2018-Jun-17 20:30N 51°58' E 001°17'0 0.0
2018-Jun-17 20:00N 51°58' E 001°17'0 0.0
2018-Jun-17 19:30N 51°58' E 001°17'0 0.0
2018-Jun-17 19:00N 51°58' E 001°17'0 0.0
2018-Jun-17 18:30N 51°58' E 001°17'0 0.0
2018-Jun-17 18:00N 51°58' E 001°17'0 0.0
2018-Jun-17 17:30N 51°58' E 001°17'0 0.0
2018-Jun-17 17:00N 51°58' E 001°17'0 0.0
2018-Jun-17 16:30N 51°58' E 001°17'0 0.0
2018-Jun-17 16:00N 51°58' E 001°17'0 0.0
2018-Jun-17 15:30N 51°58' E 001°17'0 0.0
2018-Jun-17 15:00N 51°58' E 001°17'0 0.0
2018-Jun-17 14:30N 51°58' E 001°17'0 0.0
2018-Jun-17 14:00N 51°58' E 001°17'0 0.0
2018-Jun-17 13:30N 51°58' E 001°17'0 0.0
2018-Jun-17 13:00N 51°58' E 001°17'0 0.0
2018-Jun-17 12:30N 51°58' E 001°17'0 0.0
2018-Jun-17 12:00N 51°58' E 001°17'0 0.0
2018-Jun-17 11:30N 51°58' E 001°17'0 0.0
2018-Jun-17 11:00N 51°58' E 001°17'0 0.0
2018-Jun-17 10:30N 51°58' E 001°17'0 0.0
2018-Jun-17 10:00N 51°58' E 001°17'0 0.0
2018-Jun-17 09:30N 51°58' E 001°17'0 0.0
2018-Jun-17 09:00N 51°58' E 001°17'0 0.0
2018-Jun-17 08:30N 51°58' E 001°17'0 0.0
2018-Jun-17 08:00N 51°58' E 001°17'0 0.0
2018-Jun-17 07:30N 51°58' E 001°17'0 0.0
2018-Jun-17 07:00N 51°58' E 001°17'0 0.0
2018-Jun-17 06:30N 51°58' E 001°17'0 0.0
2018-Jun-17 06:00N 51°58' E 001°17'0 0.0
2018-Jun-17 05:30N 51°58' E 001°17'0 0.0
2018-Jun-17 05:00N 51°58' E 001°17'0 0.0
2018-Jun-17 04:30N 51°58' E 001°17'0 0.0
2018-Jun-17 04:00N 51°58' E 001°17'0 0.0
2018-Jun-17 03:30N 51°58' E 001°17'0 0.0
2018-Jun-17 03:00N 51°58' E 001°17'0 0.0
2018-Jun-17 02:30N 51°58' E 001°17'0 0.0
2018-Jun-17 02:00N 51°58' E 001°17'0 0.0
2018-Jun-17 01:30N 51°58' E 001°17'0 0.0
2018-Jun-17 01:00N 51°58' E 001°17'0 0.0
2018-Jun-17 00:30N 51°58' E 001°17'0 0.0
2018-Jun-17 00:00N 51°58' E 001°17'0 0.0
2018-Jun-16 23:30N 51°58' E 001°17'0 0.0
2018-Jun-16 23:00N 51°58' E 001°17'0 0.0
2018-Jun-16 22:30N 51°58' E 001°17'0 0.0
2018-Jun-16 22:00N 51°58' E 001°17'0 0.0
2018-Jun-16 21:30N 51°58' E 001°17'0 0.0
2018-Jun-16 21:00N 51°58' E 001°17'0 0.0
2018-Jun-16 20:30N 51°58' E 001°17'0 0.0
2018-Jun-16 20:00N 51°58' E 001°17'0 0.0
2018-Jun-16 19:30N 51°58' E 001°17'0 0.0
2018-Jun-16 19:00N 51°58' E 001°17'0 0.0
2018-Jun-16 18:30N 51°58' E 001°17'0 0.0
2018-Jun-16 18:00N 51°58' E 001°17'0 0.0
2018-Jun-16 17:30N 51°58' E 001°17'0 0.0
2018-Jun-16 17:00N 51°58' E 001°17'0 0.0
2018-Jun-16 16:30N 51°58' E 001°17'0 0.0
2018-Jun-16 16:00N 51°58' E 001°17'0 0.0
2018-Jun-16 15:30N 51°58' E 001°17'0 0.0
2018-Jun-16 15:00N 51°58' E 001°17'0 0.0
2018-Jun-16 14:30N 51°58' E 001°17'0 0.0
2018-Jun-16 14:00N 51°58' E 001°17'0 0.0
2018-Jun-16 13:30N 51°58' E 001°17'0 0.0
2018-Jun-16 13:00N 51°58' E 001°17'0 0.0
2018-Jun-16 12:30N 51°58' E 001°17'0 0.0
2018-Jun-16 12:00N 51°58' E 001°17'0 0.0
2018-Jun-16 11:30N 51°58' E 001°17'0 0.0
2018-Jun-16 11:00N 51°58' E 001°17'0 0.0
2018-Jun-16 10:30N 51°58' E 001°17'0 0.0
2018-Jun-16 10:00N 51°58' E 001°17'0 0.0
2018-Jun-16 09:30N 51°58' E 001°17'0 0.0
2018-Jun-16 09:00N 51°58' E 001°17'0 0.0
2018-Jun-16 08:30N 51°58' E 001°17'0 0.0
2018-Jun-16 08:00N 51°58' E 001°17'0 0.0
2018-Jun-16 07:30N 51°58' E 001°17'0 0.0
2018-Jun-16 07:00N 51°58' E 001°17'0 0.0
2018-Jun-16 06:30N 51°58' E 001°17'0 0.7
2018-Jun-16 06:00N 51°58' E 001°18'1 1.7
2018-Jun-16 05:30N 51°57' E 001°19'2 4.8
2018-Jun-16 05:00N 51°56' E 001°22'713.4
2018-Jun-16 04:31N 51°56' E 001°33'611.2
2018-Jun-16 04:00N 51°52' E 001°38'3 5.7
2018-Jun-16 03:30N 51°52' E 001°43'2 4.2
2018-Jun-16 03:00N 51°54' E 001°44'1 2.9
2018-Jun-16 02:30N 51°55' E 001°45'2 4.4
2018-Jun-16 02:00N 51°57' E 001°47'2 4.4
2018-Jun-16 01:30N 51°56' E 001°49'3 7.0
2018-Jun-16 01:00N 51°52' E 001°49'3 6.7
2018-Jun-16 00:30N 51°49' E 001°49'3 6.5
2018-Jun-16 00:00N 51°46' E 001°49'3 5.8
2018-Jun-15 23:30N 51°43' E 001°50'3 5.1
2018-Jun-15 23:00N 51°40' E 001°50'2 4.6
2018-Jun-15 22:30N 51°38' E 001°50'3 5.2
2018-Jun-15 22:00N 51°36' E 001°51'3 5.3
2018-Jun-15 21:30N 51°33' E 001°53'3 5.6
2018-Jun-15 21:00N 51°31' E 001°55'510.1
2018-Jun-15 20:30N 51°27' E 002°00'3 6.6
2018-Jun-15 20:00N 51°24' E 002°04'510.2
2018-Jun-15 19:30N 51°22' E 002°11'510.6
2018-Jun-15 19:00N 51°20' E 002°19'611.7
2018-Jun-15 18:30N 51°22' E 002°28'611.4
2018-Jun-15 18:00N 51°23' E 002°37'5 9.8
2018-Jun-15 17:30N 51°22' E 002°45'714.8
2018-Jun-15 17:00N 51°23' E 002°56'815.7
2018-Jun-15 16:30N 51°24' E 003°09'816.6
2018-Jun-15 16:00N 51°25' E 003°22'815.3
2018-Jun-15 15:30N 51°26' E 003°34'5 9.6
2018-Jun-15 15:00N 51°25' E 003°42'612.9
2018-Jun-15 14:31N 51°21' E 003°49'612.0
2018-Jun-15 14:00N 51°24' E 003°57'3 6.1
2018-Jun-15 13:30N 51°24' E 004°02'510.2
2018-Jun-15 13:00N 51°23' E 004°10'5 9.3
2018-Jun-15 12:31N 51°21' E 004°16'3 5.8
2018-Jun-15 11:59N 51°18' E 004°16'0 0.1
2018-Jun-15 11:29N 51°18' E 004°16'0 0.0
2018-Jun-15 10:59N 51°18' E 004°16'0 0.0
2018-Jun-15 10:29N 51°18' E 004°16'0 0.0
2018-Jun-15 09:59N 51°18' E 004°16'0 0.0
2018-Jun-15 09:29N 51°18' E 004°16'0 0.0
2018-Jun-15 08:59N 51°18' E 004°16'0 0.0
2018-Jun-15 08:29N 51°18' E 004°16'0 0.0
2018-Jun-15 07:59N 51°18' E 004°16'0 0.0
2018-Jun-15 07:29N 51°18' E 004°16'0 0.0
2018-Jun-15 06:56N 51°18' E 004°16'0 0.0
2018-Jun-15 06:29N 51°18' E 004°16'0 0.0
2018-Jun-15 05:59N 51°18' E 004°16'0 0.0
2018-Jun-15 05:29N 51°18' E 004°16'0 0.0
2018-Jun-15 04:59N 51°18' E 004°16'0 0.0
2018-Jun-15 04:29N 51°18' E 004°16'0 0.0
2018-Jun-15 03:59N 51°18' E 004°16'0 0.0
2018-Jun-15 03:29N 51°18' E 004°16'0 0.0
2018-Jun-15 03:00N 51°18' E 004°16'0 0.0
2018-Jun-15 02:30N 51°18' E 004°16'0 0.0
2018-Jun-15 02:00N 51°18' E 004°16'0 0.0
2018-Jun-15 01:30N 51°18' E 004°16'0 0.0
2018-Jun-15 01:00N 51°18' E 004°16'0 0.0
2018-Jun-15 00:30N 51°18' E 004°16'0 0.0
2018-Jun-15 00:00N 51°18' E 004°16'0 0.0
2018-Jun-14 23:30N 51°18' E 004°15'0 0.0
2018-Jun-14 23:00N 51°18' E 004°16'0 0.0
2018-Jun-14 22:30N 51°18' E 004°16'0 0.0
2018-Jun-14 22:00N 51°18' E 004°16'0 0.0
2018-Jun-14 21:30N 51°18' E 004°16'0 0.0
2018-Jun-14 21:00N 51°18' E 004°16'0 0.0
2018-Jun-14 20:30N 51°18' E 004°16'0 0.0
2018-Jun-14 20:00N 51°18' E 004°16'0 0.0
2018-Jun-14 19:30N 51°18' E 004°16'0 0.0
2018-Jun-14 19:00N 51°18' E 004°16'0 0.0
2018-Jun-14 18:30N 51°18' E 004°16'0 0.0
2018-Jun-14 18:00N 51°18' E 004°16'0 0.0
2018-Jun-14 17:30N 51°18' E 004°16'0 0.0
2018-Jun-14 17:00N 51°18' E 004°16'0 0.0
2018-Jun-14 16:30N 51°18' E 004°16'0 0.0
2018-Jun-14 16:00N 51°18' E 004°16'0 0.0
2018-Jun-14 15:30N 51°18' E 004°16'0 0.0
2018-Jun-14 15:00N 51°18' E 004°16'0 0.0
2018-Jun-14 14:30N 51°18' E 004°16'1 1.6
2018-Jun-14 14:01N 51°18' E 004°16'2 3.9
2018-Jun-14 13:30N 51°20' E 004°16'1 2.1
2018-Jun-14 13:00N 51°21' E 004°16'0 0.2
2018-Jun-14 12:28N 51°21' E 004°15'0 0.0
2018-Jun-14 12:00N 51°21' E 004°15'0 0.0
2018-Jun-14 11:30N 51°21' E 004°15'0 0.0
2018-Jun-14 11:00N 51°21' E 004°15'0 0.0
2018-Jun-14 10:31N 51°21' E 004°15'0 0.0
2018-Jun-14 10:00N 51°21' E 004°15'0 0.0
2018-Jun-14 09:30N 51°21' E 004°15'0 0.0
2018-Jun-14 08:59N 51°21' E 004°15'0 0.0
2018-Jun-14 08:29N 51°21' E 004°15'0 0.0
2018-Jun-14 08:01N 51°21' E 004°15'0 0.0
2018-Jun-14 07:31N 51°21' E 004°15'0 0.0
2018-Jun-14 07:00N 51°21' E 004°15'0 0.0
2018-Jun-14 06:30N 51°21' E 004°15'0 0.0
2018-Jun-14 06:00N 51°21' E 004°15'0 0.0
2018-Jun-14 05:30N 51°21' E 004°15'0 0.0
2018-Jun-14 05:00N 51°21' E 004°15'0 0.0
2018-Jun-14 04:31N 51°21' E 004°15'0 0.0
2018-Jun-14 04:00N 51°21' E 004°15'0 0.0
2018-Jun-14 03:31N 51°21' E 004°15'  

Dump ship's entire track history